Time;durP1;ratioP1;P1;durP2;ratioP2;P2;SDS_P1;SDS_P2;PMS_P1;PMS_P2;Temp;Humidity;BMP_temperature;BMP_pressure;BME280_temperature;BME280_humidity;BME280_pressure;Samples;Min_cycle;Max_cycle;Signal;HPM_P1;HPM_P2
2022/03/11 00:01:31;;;;;;;10.70;5.75;;;;;;;-3.51;48.95;102013.47;4439229;32;20127;-78
2022/03/11 00:04:00;;;;;;;10.85;5.87;;;;;;;-3.56;48.83;102007.09;4425032;32;20111;-78
2022/03/11 00:06:28;;;;;;;10.35;5.68;;;;;;;-3.54;48.99;102008.09;4439230;32;20156;-78
2022/03/11 00:08:55;;;;;;;9.90;5.68;;;;;;;-3.61;48.75;102011.91;4424896;32;20126;-78
2022/03/11 00:11:22;;;;;;;10.00;5.22;;;;;;;-3.62;48.82;102009.22;4439250;32;20165;-78
2022/03/11 00:13:50;;;;;;;12.40;5.43;;;;;;;-3.61;48.37;102009.31;4424956;32;20092;-78
2022/03/11 00:16:17;;;;;;;8.60;5.15;;;;;;;-3.60;48.58;102015.41;4412216;32;20084;-78
2022/03/11 00:18:46;;;;;;;18.50;5.75;;;;;;;-3.67;48.64;102013.19;4438956;32;20121;-78
2022/03/11 00:21:13;;;;;;;13.43;5.65;;;;;;;-3.67;48.50;102008.91;4439187;32;20101;-78
2022/03/11 00:23:42;;;;;;;10.50;5.95;;;;;;;-3.58;48.38;102018.06;4438966;32;20577;-78
2022/03/11 00:26:09;;;;;;;10.13;5.97;;;;;;;-3.72;48.69;102009.34;4424841;32;20370;-78
2022/03/11 00:28:37;;;;;;;10.00;5.65;;;;;;;-3.71;48.88;102016.28;4439062;32;20543;-78
2022/03/11 00:31:05;;;;;;;12.23;5.60;;;;;;;-3.76;48.52;102010.81;4439185;32;20529;-78
2022/03/11 00:33:32;;;;;;;13.00;5.72;;;;;;;-3.76;48.52;102007.34;4439129;32;20146;-78
2022/03/11 00:36:00;;;;;;;11.02;5.93;;;;;;;-3.87;48.85;102004.00;4439252;32;20097;-78
2022/03/11 00:38:27;;;;;;;12.93;6.25;;;;;;;-3.78;48.41;102008.91;4424628;32;20121;-78
2022/03/11 00:40:56;;;;;;;11.60;6.97;;;;;;;-3.76;48.33;102007.34;4439152;32;20180;-78
2022/03/11 00:43:23;;;;;;;13.88;6.10;;;;;;;-3.86;48.42;102004.09;4439228;32;20090;-78
2022/03/11 00:45:53;;;;;;;14.35;6.62;;;;;;;-3.87;48.32;102001.44;4424912;32;20166;-78
2022/03/11 00:48:23;;;;;;;11.98;5.78;;;;;;;-3.89;48.81;102005.56;4439334;32;20120;-78
2022/03/11 00:50:50;;;;;;;12.00;6.35;;;;;;;-3.84;48.46;102004.22;4439013;32;20101;-78
2022/03/11 00:53:18;;;;;;;12.55;6.05;;;;;;;-3.81;48.30;102003.56;4424883;32;20116;-78
2022/03/11 00:55:45;;;;;;;10.20;5.85;;;;;;;-3.86;48.31;101998.94;4439086;32;20453;-78
2022/03/11 00:58:12;;;;;;;12.82;5.93;;;;;;;-3.88;48.42;102003.13;4439075;32;20101;-78
2022/03/11 01:00:40;;;;;;;10.88;5.50;;;;;;;-3.85;48.13;101999.87;4439211;32;20101;-78
2022/03/11 01:03:07;;;;;;;11.85;6.20;;;;;;;-3.90;48.54;101993.47;4424728;32;20132;-78
2022/03/11 01:05:34;;;;;;;8.20;5.35;;;;;;;-3.87;48.38;101999.75;4438705;32;20393;-77
2022/03/11 01:08:03;;;;;;;9.43;5.50;;;;;;;-3.93;48.46;101996.72;4411737;32;20175;-78
2022/03/11 01:10:31;;;;;;;9.30;5.43;;;;;;;-3.93;48.34;101996.72;4438903;32;20150;-78
2022/03/11 01:12:58;;;;;;;10.38;5.47;;;;;;;-3.98;48.66;101997.19;4438873;32;20429;-78
2022/03/11 01:15:25;;;;;;;12.32;5.85;;;;;;;-3.96;48.47;101995.59;4438843;32;20166;-78
2022/03/11 01:17:53;;;;;;;12.48;5.82;;;;;;;-4.03;48.69;101993.38;4438818;32;20369;-78
2022/03/11 01:20:20;;;;;;;9.18;5.15;;;;;;;-4.02;48.73;101996.06;4421610;32;20174;-78
2022/03/11 01:22:47;;;;;;;11.20;5.40;;;;;;;-4.02;48.69;102003.81;4423316;32;20542;-78
2022/03/11 01:25:14;;;;;;;9.02;5.22;;;;;;;-4.02;48.71;101992.59;4423262;32;20475;-78
2022/03/11 01:27:42;;;;;;;10.90;4.87;;;;;;;-4.02;48.69;102006.37;4421665;32;20118;-78
2022/03/11 01:30:13;;;;;;;8.13;4.68;;;;;;;-4.02;48.15;101997.75;4423176;32;20097;-78
2022/03/11 01:32:42;;;;;;;8.55;5.20;;;;;;;-4.00;48.40;102004.78;4423334;32;20397;-78
2022/03/11 01:35:11;;;;;;;9.65;5.12;;;;;;;-4.08;48.51;101998.19;4423161;32;20405;-78
2022/03/11 01:37:40;;;;;;;8.20;4.50;;;;;;;-4.13;48.82;102000.44;4422903;32;20547;-78
2022/03/11 01:40:08;;;;;;;13.62;5.62;;;;;;;-4.10;48.61;101997.19;4423099;32;20128;-78
2022/03/11 01:42:36;;;;;;;12.80;6.05;;;;;;;-4.20;49.00;101999.87;4408909;32;20129;-78
2022/03/11 01:45:05;;;;;;;13.55;6.30;;;;;;;-4.18;48.79;101995.72;4421364;32;20086;-78
2022/03/11 01:47:32;;;;;;;9.30;5.05;;;;;;;-4.16;48.81;101989.91;4422923;32;20105;-78
2022/03/11 01:50:02;;;;;;;9.52;5.30;;;;;;;-4.15;48.63;101986.56;4422926;32;20110;-78
2022/03/11 01:52:30;;;;;;;9.95;4.82;;;;;;;-4.15;48.80;101988.25;4422799;32;20159;-78
2022/03/11 01:54:57;;;;;;;10.07;5.47;;;;;;;-4.17;48.81;101987.22;4422687;32;20090;-78
2022/03/11 01:57:24;;;;;;;9.20;5.03;;;;;;;-4.21;48.88;101993.81;4422769;32;20090;-78
2022/03/11 01:59:53;;;;;;;9.23;5.50;;;;;;;-4.25;49.12;101991.81;4408657;32;20131;-78
2022/03/11 02:02:21;;;;;;;10.82;5.15;;;;;;;-4.22;48.96;101989.47;4422597;32;20143;-78
2022/03/11 02:04:48;;;;;;;10.00;4.62;;;;;;;-4.23;49.07;101989.37;4422795;32;20117;-77
2022/03/11 02:07:16;;;;;;;9.70;4.93;;;;;;;-4.29;49.20;101989.81;4422648;32;20450;-78
2022/03/11 02:09:43;;;;;;;9.18;5.28;;;;;;;-4.27;48.95;101987.34;4421147;32;20125;-78
2022/03/11 02:12:10;;;;;;;8.75;4.80;;;;;;;-4.30;49.05;101990.59;4421181;32;20476;-78
2022/03/11 02:14:37;;;;;;;10.15;5.30;;;;;;;-4.31;49.00;101996.53;4422732;32;20170;-78
2022/03/11 02:17:05;;;;;;;11.52;5.00;;;;;;;-4.33;49.16;101996.41;4421329;32;20424;-78
2022/03/11 02:19:33;;;;;;;7.62;4.57;;;;;;;-4.34;49.18;101992.03;4410431;32;20184;-78
2022/03/11 02:22:02;;;;;;;7.68;5.03;;;;;;;-4.38;49.15;101987.47;4422975;32;20138;-78
2022/03/11 02:24:30;;;;;;;10.65;5.43;;;;;;;-4.28;48.72;101982.97;4424468;32;20085;-78
2022/03/11 02:26:58;;;;;;;8.18;4.68;;;;;;;-4.32;48.73;101995.59;4422885;32;20159;-78
2022/03/11 02:29:26;;;;;;;8.35;4.70;;;;;;;-4.35;48.73;101995.41;4423116;32;20509;-78
2022/03/11 02:31:53;;;;;;;9.68;4.78;;;;;;;-4.36;48.53;101991.03;4424528;32;20081;-78
2022/03/11 02:34:21;;;;;;;9.35;5.37;;;;;;;-4.36;48.76;101983.31;4424430;32;20159;-78
2022/03/11 02:36:48;;;;;;;10.57;5.20;;;;;;;-4.39;48.62;101987.31;4422724;32;20481;-78
2022/03/11 02:39:16;;;;;;;11.10;4.45;;;;;;;-4.39;48.92;101988.22;4422687;32;20150;-78
2022/03/11 02:41:45;;;;;;;8.75;4.80;;;;;;;-4.47;48.86;101985.87;4424327;32;20185;-78
2022/03/11 02:44:12;;;;;;;10.00;5.62;;;;;;;-4.51;48.84;101989.91;4424387;32;20098;-78
2022/03/11 02:46:39;;;;;;;9.57;5.12;;;;;;;-4.66;49.16;101987.09;4424402;32;20089;-78
2022/03/11 02:49:07;;;;;;;10.10;4.90;;;;;;;-4.60;49.47;101991.78;4424232;32;20624;-78
2022/03/11 02:51:34;;;;;;;10.35;5.00;;;;;;;-4.66;49.30;101996.47;4422712;32;20081;-78
2022/03/11 02:54:03;;;;;;;8.85;5.15;;;;;;;-4.71;49.59;101993.53;4422596;32;20093;-77
2022/03/11 02:56:32;;;;;;;7.28;4.80;;;;;;;-4.76;49.90;101994.88;4424261;32;20174;-78
2022/03/11 02:58:59;;;;;;;7.37;4.20;;;;;;;-4.89;50.30;101992.16;4424431;32;20112;-78
2022/03/11 03:01:26;;;;;;;8.95;4.78;;;;;;;-5.01;50.48;101984.41;4424247;32;20109;-78
2022/03/11 03:03:53;;;;;;;7.32;4.47;;;;;;;-5.08;50.70;101984.75;4422552;32;20149;-78
2022/03/11 03:06:23;;;;;;;6.32;4.53;;;;;;;-5.16;51.38;101979.00;4424390;32;20511;-78
2022/03/11 03:08:50;;;;;;;12.20;5.12;;;;;;;-4.98;51.07;101988.88;4422563;32;20450;-78
2022/03/11 03:11:18;;;;;;;9.85;5.50;;;;;;;-5.01;50.99;101986.09;4424139;32;20147;-78
2022/03/11 03:13:46;;;;;;;10.05;6.07;;;;;;;-4.94;51.07;101984.09;4424191;32;20617;-78
2022/03/11 03:16:13;;;;;;;14.25;5.97;;;;;;;-4.94;50.86;101984.09;4424052;32;20101;-78
2022/03/11 03:18:40;;;;;;;10.38;5.37;;;;;;;-4.93;50.73;101993.59;4422517;32;20101;-78
2022/03/11 03:21:11;;;;;;;10.20;5.35;;;;;;;-4.89;50.29;101990.47;4422538;32;20085;-78
2022/03/11 03:23:38;;;;;;;12.95;5.50;;;;;;;-5.02;50.36;101992.00;4424078;32;20508;-78
2022/03/11 03:26:06;;;;;;;10.23;5.25;;;;;;;-5.05;50.81;101990.13;4409723;32;20160;-78
2022/03/11 03:28:33;;;;;;;10.00;5.35;;;;;;;-5.02;50.34;101987.75;4423046;32;20465;-78
2022/03/11 03:31:01;;;;;;;9.32;4.95;;;;;;;-5.13;50.92;101986.94;4422454;32;20085;-78
2022/03/11 03:33:30;;;;;;;7.57;4.85;;;;;;;-5.05;50.16;101990.13;4423935;32;20462;-78
2022/03/11 03:35:58;;;;;;;7.35;4.60;;;;;;;-5.13;50.65;101989.50;4424062;32;20101;-78
2022/03/11 03:38:25;;;;;;;7.07;4.37;;;;;;;-5.21;50.99;101976.84;4409999;32;20113;-78
2022/03/11 03:40:53;;;;;;;9.38;5.32;;;;;;;-5.31;51.12;101978.69;4422138;32;20112;-78
2022/03/11 03:43:20;;;;;;;9.00;4.65;;;;;;;-5.39;51.22;101977.22;4422487;32;20492;-78
2022/03/11 03:45:47;;;;;;;9.80;4.95;;;;;;;-5.38;51.52;101983.25;4424034;32;20093;-78
2022/03/11 03:48:14;;;;;;;10.55;5.32;;;;;;;-5.47;51.90;101975.75;4423951;32;20529;-78
2022/03/11 03:50:42;;;;;;;9.25;5.10;;;;;;;-5.44;51.61;101977.62;4423985;32;20147;-77
2022/03/11 03:53:09;;;;;;;11.05;5.12;;;;;;;-5.50;52.17;101988.34;4422208;32;20166;-78
2022/03/11 03:55:36;;;;;;;8.82;5.20;;;;;;;-5.59;52.89;101988.50;4423833;32;20093;-77
2022/03/11 03:58:03;;;;;;;11.98;5.40;;;;;;;-5.42;52.50;101982.13;4423956;32;20442;-78
2022/03/11 04:00:31;;;;;;;8.88;5.60;;;;;;;-5.36;51.92;101979.16;4423821;32;20081;-78
2022/03/11 04:02:58;;;;;;;13.80;5.57;;;;;;;-5.24;51.81;101984.31;4423775;32;20131;-78
2022/03/11 04:05:26;;;;;;;12.45;5.72;;;;;;;-5.26;51.55;101993.56;4423808;32;20175;-78
2022/03/11 04:07:54;;;;;;;11.27;6.03;;;;;;;-5.18;51.46;101993.41;4423739;32;20106;-77
2022/03/11 04:10:22;;;;;;;11.27;5.28;;;;;;;-5.21;51.65;101998.31;4423740;32;20576;-78
2022/03/11 04:12:50;;;;;;;13.27;6.40;;;;;;;-5.23;51.43;101998.94;4423795;32;20128;-78
2022/03/11 04:15:17;;;;;;;17.92;6.05;;;;;;;-5.18;51.57;101998.53;4423711;32;20098;-78
2022/03/11 04:17:44;;;;;;;16.60;7.12;;;;;;;-5.11;51.71;101995.66;4423815;32;20210;-78
2022/03/11 04:20:11;;;;;;;19.67;7.15;;;;;;;-5.12;51.86;101993.00;4422033;32;20104;-78
2022/03/11 04:22:41;;;;;;;18.92;8.40;;;;;;;-5.21;51.73;101997.41;4422069;32;20089;-78
2022/03/11 04:25:13;;;;;;;16.55;7.57;;;;;;;-5.36;52.03;102000.59;4423736;32;20113;-78
2022/03/11 04:27:41;;;;;;;16.33;7.22;;;;;;;-5.38;52.08;102004.69;4423761;32;20098;-77
2022/03/11 04:30:09;;;;;;;13.43;6.87;;;;;;;-5.33;52.32;102010.22;4423634;32;20082;-78
2022/03/11 04:32:37;;;;;;;16.15;6.00;;;;;;;-5.44;52.46;102009.37;4423657;32;20128;-78
2022/03/11 04:35:05;;;;;;;9.60;5.18;;;;;;;-5.46;52.36;102010.03;4423550;32;20166;-78
2022/03/11 04:37:32;;;;;;;13.25;6.12;;;;;;;-5.40;52.50;102006.28;4417259;32;20220;-77
2022/03/11 04:40:00;;;;;;;16.65;5.47;;;;;;;-5.38;52.38;102003.81;4408231;32;20090;-77
2022/03/11 04:42:27;;;;;;;13.30;6.07;;;;;;;-5.43;52.79;102010.28;4406793;32;20106;-77
2022/03/11 04:44:54;;;;;;;10.05;5.45;;;;;;;-5.43;52.53;102006.03;4408070;32;20106;-77
2022/03/11 04:47:22;;;;;;;11.70;5.62;;;;;;;-5.41;52.51;102007.03;4408803;32;20101;-78
2022/03/11 04:49:53;;;;;;;10.23;6.25;;;;;;;-5.39;52.53;102017.44;4409021;32;20785;-78
2022/03/11 04:52:21;;;;;;;11.27;5.65;;;;;;;-5.40;52.55;102023.34;4409300;32;20094;-78
2022/03/11 04:54:48;;;;;;;21.35;6.37;;;;;;;-5.56;52.79;102024.69;4408930;32;20125;-77
2022/03/11 04:57:15;;;;;;;12.15;6.15;;;;;;;-5.58;53.07;102022.81;4408759;32;20093;-77
2022/03/11 04:59:44;;;;;;;14.95;7.00;;;;;;;-5.62;53.16;102026.81;4408187;32;20157;-77
2022/03/11 05:02:11;;;;;;;14.87;6.57;;;;;;;-5.71;53.54;102023.50;4408240;32;20094;-77
2022/03/11 05:04:38;;;;;;;11.90;6.05;;;;;;;-5.73;53.98;102019.91;4408751;32;20094;-78
2022/03/11 05:07:07;;;;;;;13.98;6.85;;;;;;;-5.73;54.07;102030.16;4408410;32;20148;-78
2022/03/11 05:09:35;;;;;;;12.05;6.55;;;;;;;-5.79;54.39;102029.69;4408263;32;20438;-77
2022/03/11 05:12:02;;;;;;;10.77;5.82;;;;;;;-5.75;54.16;102031.72;4408316;32;20086;-78
2022/03/11 05:14:29;;;;;;;19.40;6.30;;;;;;;-5.76;54.56;102019.66;4408311;32;20156;-78
2022/03/11 05:16:57;;;;;;;16.17;7.05;;;;;;;-5.65;54.28;102020.53;4408642;32;20109;-78
2022/03/11 05:19:25;;;;;;;16.73;7.87;;;;;;;-5.55;53.88;102030.72;4416446;32;20514;-78
2022/03/11 05:21:52;;;;;;;37.38;12.77;;;;;;;-5.41;53.26;102034.38;4423786;32;20188;-78
2022/03/11 05:24:20;;;;;;;33.65;14.45;;;;;;;-5.25;52.74;102033.94;4396479;32;20144;-78
2022/03/11 05:26:48;;;;;;;26.02;12.68;;;;;;;-5.29;52.87;102041.41;4423434;32;20120;-78
2022/03/11 05:29:15;;;;;;;19.87;9.30;;;;;;;-5.19;52.49;102047.25;4423391;32;20492;-74
2022/03/11 05:31:43;;;;;;;17.10;8.23;;;;;;;-5.08;52.58;102043.84;4408499;32;20491;-75
2022/03/11 05:34:10;;;;;;;14.45;6.68;;;;;;;-5.01;52.34;102040.97;4408592;32;20402;-75
2022/03/11 05:36:38;;;;;;;15.45;6.47;;;;;;;-4.91;52.10;102039.97;4423155;32;20497;-75
2022/03/11 05:39:05;;;;;;;12.70;6.12;;;;;;;-4.83;52.24;102039.81;4423085;32;20094;-74
2022/03/11 05:41:33;;;;;;;14.85;5.95;;;;;;;-4.80;51.41;102052.00;4422857;32;20413;-74
2022/03/11 05:44:00;;;;;;;11.82;5.65;;;;;;;-4.69;51.73;102051.16;4421459;32;20185;-74
2022/03/11 05:46:27;;;;;;;17.70;6.15;;;;;;;-4.70;51.96;102048.44;4407026;32;20113;-74
2022/03/11 05:48:55;;;;;;;13.40;6.28;;;;;;;-4.66;51.85;102050.50;4407584;32;20119;-74
2022/03/11 05:51:23;;;;;;;19.75;6.37;;;;;;;-4.57;51.73;102053.75;4422505;32;20081;-74
2022/03/11 05:53:50;;;;;;;21.35;5.90;;;;;;;-4.44;51.19;102058.16;4424545;32;20127;-75
2022/03/11 05:56:17;;;;;;;15.65;6.20;;;;;;;-4.39;51.00;102060.25;4424358;32;20097;-75
2022/03/11 05:58:45;;;;;;;11.85;6.22;;;;;;;-4.33;50.85;102055.59;4424430;32;20497;-75
2022/03/11 06:01:12;;;;;;;13.88;6.10;;;;;;;-4.27;50.79;102062.88;4410298;32;20093;-75
2022/03/11 06:03:40;;;;;;;16.00;5.97;;;;;;;-4.17;50.48;102067.00;4410271;32;20190;-75
2022/03/11 06:06:07;;;;;;;16.95;6.00;;;;;;;-4.05;50.42;102079.91;4424270;32;20131;-74
2022/03/11 06:08:34;;;;;;;19.70;6.68;;;;;;;-3.91;49.93;102072.41;4409995;32;20081;-75
2022/03/11 06:11:02;;;;;;;12.32;5.80;;;;;;;-3.83;49.85;102069.50;4410144;32;20101;-74
2022/03/11 06:13:29;;;;;;;16.45;6.50;;;;;;;-3.70;49.53;102069.63;4423172;32;20166;-74
2022/03/11 06:15:56;;;;;;;13.25;6.35;;;;;;;-3.57;49.12;102069.69;4423493;32;20127;-74
2022/03/11 06:18:24;;;;;;;15.00;6.15;;;;;;;-3.51;48.93;102066.69;4424163;32;20494;-74
2022/03/11 06:20:51;;;;;;;17.15;7.10;;;;;;;-3.41;48.12;102076.84;4409863;32;20089;-74
2022/03/11 06:23:19;;;;;;;12.35;6.65;;;;;;;-3.24;47.44;102075.50;4424013;32;20098;-74
2022/03/11 06:25:46;;;;;;;14.63;6.87;;;;;;;-3.24;47.34;102081.53;4424242;32;20521;-74
2022/03/11 06:28:13;;;;;;;10.50;6.30;;;;;;;-3.15;47.52;102081.28;4424195;32;20081;-74
2022/03/11 06:30:42;;;;;;;18.58;6.45;;;;;;;-3.03;46.86;102087.31;4424060;32;20171;-75
2022/03/11 06:33:09;;;;;;;20.27;6.37;;;;;;;-2.96;46.56;102089.53;4424093;32;20156;-74
2022/03/11 06:35:37;;;;;;;12.77;6.75;;;;;;;-2.92;46.70;102090.63;4423822;32;20507;-74
2022/03/11 06:38:05;;;;;;;19.08;6.03;;;;;;;-2.81;46.86;102083.63;4409429;32;20200;-74
2022/03/11 06:40:33;;;;;;;14.40;6.32;;;;;;;-2.70;45.86;102082.69;4423654;32;20523;-74
2022/03/11 06:43:00;;;;;;;22.13;6.60;;;;;;;-2.68;45.97;102084.59;4423416;32;20089;-73
2022/03/11 06:45:27;;;;;;;13.68;5.80;;;;;;;-2.54;45.81;102082.06;4409258;32;20117;-75
2022/03/11 06:47:55;;;;;;;14.63;6.28;;;;;;;-2.46;45.84;102083.47;4396240;32;20097;-74
2022/03/11 06:50:22;;;;;;;25.08;5.90;;;;;;;-2.31;45.24;102089.66;4422719;32;20423;-75
2022/03/11 06:52:49;;;;;;;14.40;5.75;;;;;;;-2.34;44.74;102092.03;4422391;32;20730;-73
2022/03/11 06:55:18;;;;;;;21.58;6.12;;;;;;;-2.26;44.88;102089.97;4422372;32;20162;-74
2022/03/11 06:57:45;;;;;;;14.40;5.78;;;;;;;-2.26;44.96;102092.53;4422377;32;20081;-73
2022/03/11 07:00:13;;;;;;;13.35;6.30;;;;;;;-2.14;44.81;102093.38;4422591;32;20106;-73
2022/03/11 07:02:43;;;;;;;26.45;4.82;;;;;;;-2.05;44.07;102087.91;4424132;32;20085;-75
2022/03/11 07:05:11;;;;;;;10.30;5.22;;;;;;;-1.94;43.46;102098.19;4424325;32;20156;-71
2022/03/11 07:07:39;;;;;;;10.45;4.95;;;;;;;-1.99;43.13;102096.97;4424176;32;20081;-73
2022/03/11 07:10:10;;;;;;;11.40;5.45;;;;;;;-1.96;42.97;102097.19;4424282;32;20105;-73
2022/03/11 07:12:37;;;;;;;13.62;4.85;;;;;;;-1.82;43.13;102092.91;4424556;32;20094;-73
2022/03/11 07:15:06;;;;;;;10.60;5.50;;;;;;;-1.66;42.93;102094.84;4423455;32;20177;-72
2022/03/11 07:17:33;;;;;;;10.10;4.87;;;;;;;-1.53;42.82;102094.81;4424077;32;20581;-72
2022/03/11 07:20:06;;;;;;;17.60;4.40;;;;;;;-1.48;41.71;102090.84;4423866;32;20489;-73
2022/03/11 07:22:34;;;;;;;13.23;4.87;;;;;;;-1.46;41.53;102089.22;4423756;32;20136;-73
2022/03/11 07:25:05;;;;;;;10.88;5.15;;;;;;;-1.38;41.41;102094.87;4436597;32;20148;-73
2022/03/11 07:27:32;;;;;;;14.38;4.72;;;;;;;-1.33;41.05;102105.53;4425091;32;20077;-73
2022/03/11 07:30:00;;;;;;;11.25;4.68;;;;;;;-1.19;41.38;102099.56;4425520;32;20081;-73
2022/03/11 07:32:27;;;;;;;8.77;4.85;;;;;;;-1.23;41.05;102105.34;4439942;32;20547;-74
2022/03/11 07:34:54;;;;;;;15.82;5.30;;;;;;;-1.23;40.93;102102.75;4439522;32;20143;-75
2022/03/11 07:37:22;;;;;;;11.90;4.85;;;;;;;-1.19;41.42;102109.91;4439422;32;20138;-73
2022/03/11 07:39:50;;;;;;;16.42;5.93;;;;;;;-1.13;40.52;102106.78;4438966;32;20102;-75
2022/03/11 07:42:18;;;;;;;25.73;5.72;;;;;;;-1.06;40.79;102103.78;4439043;32;20128;-75
2022/03/11 07:44:45;;;;;;;18.58;5.32;;;;;;;-1.04;40.64;102109.97;4439084;32;20113;-73
2022/03/11 07:47:12;;;;;;;11.68;5.45;;;;;;;-1.05;40.59;102109.06;4439061;32;20077;-75
2022/03/11 07:49:40;;;;;;;20.10;6.30;;;;;;;-0.94;40.70;102095.91;4424660;32;20085;-73
2022/03/11 07:52:14;;;;;;;15.50;5.55;;;;;;;-0.74;40.72;102100.63;4439055;32;20172;-74
2022/03/11 07:54:42;;;;;;;19.37;5.62;;;;;;;-0.81;40.57;102106.22;4439145;32;20388;-73
2022/03/11 07:57:10;;;;;;;10.93;5.12;;;;;;;-0.60;41.18;102104.94;4439334;32;20093;-73
2022/03/11 07:59:40;;;;;;;8.02;4.70;;;;;;;-0.56;39.64;102112.09;4439617;32;20551;-74
2022/03/11 08:02:07;;;;;;;14.65;5.00;;;;;;;-0.57;39.50;102107.69;4439050;32;20102;-72
2022/03/11 08:04:35;;;;;;;10.43;4.93;;;;;;;-0.53;39.41;102109.69;4412405;32;20556;-72
2022/03/11 08:07:06;;;;;;;12.10;5.37;;;;;;;-0.49;39.28;102108.19;4425340;32;20241;-74
2022/03/11 08:09:34;;;;;;;11.30;5.30;;;;;;;-0.58;39.09;102108.50;4440016;32;20101;-73
2022/03/11 08:12:03;;;;;;;11.75;5.15;;;;;;;-0.42;39.37;102115.53;4439670;32;20502;-73
2022/03/11 08:14:30;;;;;;;10.70;4.78;;;;;;;-0.36;38.95;102114.97;4436859;32;20104;-73
2022/03/11 08:16:58;;;;;;;10.38;5.53;;;;;;;-0.28;39.01;102108.59;4424593;32;20090;-72
2022/03/11 08:19:26;;;;;;;11.07;4.50;;;;;;;-0.05;38.09;102103.03;4424268;32;20514;-72
2022/03/11 08:21:53;;;;;;;9.25;4.82;;;;;;;0.08;38.76;102107.25;4424070;32;20090;-72
2022/03/11 08:24:21;;;;;;;9.88;5.35;;;;;;;0.18;38.03;102100.91;4423501;32;20127;-73
2022/03/11 08:26:49;;;;;;;34.63;6.47;;;;;;;0.28;37.44;102099.72;4396763;32;20078;-73
2022/03/11 08:29:17;;;;;;;22.30;5.30;;;;;;;0.50;37.44;102099.25;4423747;32;20101;-72
2022/03/11 08:31:49;;;;;;;12.90;5.90;;;;;;;0.71;37.18;102093.56;4423499;32;20940;-73
2022/03/11 08:34:17;;;;;;;23.38;4.95;;;;;;;0.85;36.58;102099.53;4429600;32;20097;-74
2022/03/11 08:36:59;;;;;;;8.35;4.05;;;;;;;0.86;36.19;102095.22;4438696;32;20073;-72
2022/03/11 08:39:26;;;;;;;10.38;4.78;;;;;;;0.93;35.08;102086.97;4435207;32;20490;-73
2022/03/11 08:41:55;;;;;;;6.40;4.07;;;;;;;0.96;34.71;102081.94;4424279;32;20524;-73
2022/03/11 08:44:22;;;;;;;8.13;4.25;;;;;;;1.07;35.41;102077.31;4438562;32;20162;-73
2022/03/11 08:46:49;;;;;;;18.20;4.90;;;;;;;1.04;34.29;102078.03;4426789;32;20143;-73
2022/03/11 08:49:16;;;;;;;8.75;4.18;;;;;;;1.24;34.97;102081.72;4423132;32;20506;-73
2022/03/11 08:51:43;;;;;;;12.85;5.40;;;;;;;1.12;34.18;102075.84;4408961;32;20109;-73
2022/03/11 08:54:12;;;;;;;8.25;4.28;;;;;;;1.00;34.76;102073.50;4423481;32;20092;-73
2022/03/11 08:56:40;;;;;;;6.87;4.12;;;;;;;1.25;34.63;102072.22;4423500;32;20081;-73
2022/03/11 08:59:07;;;;;;;15.43;4.75;;;;;;;1.42;34.66;102068.81;4423384;32;20520;-75
2022/03/11 09:01:34;;;;;;;9.75;4.55;;;;;;;1.73;34.65;102063.44;4423239;32;20140;-74
2022/03/11 09:04:07;;;;;;;9.40;4.45;;;;;;;1.93;33.97;102059.28;4408829;32;20129;-73
2022/03/11 09:06:35;;;;;;;7.47;4.40;;;;;;;1.91;33.59;102067.00;4431763;32;20090;-72
2022/03/11 09:09:02;;;;;;;14.82;4.60;;;;;;;1.97;32.73;102061.19;4438722;32;20108;-74
2022/03/11 09:11:31;;;;;;;19.98;4.65;;;;;;;2.00;32.97;102055.28;4436634;32;20102;-75
2022/03/11 09:13:59;;;;;;;7.10;4.45;;;;;;;2.15;33.14;102056.91;4438589;32;20529;-73
2022/03/11 09:16:26;;;;;;;9.90;4.90;;;;;;;2.12;32.56;102061.06;4423985;32;20097;-73
2022/03/11 09:18:54;;;;;;;19.08;4.53;;;;;;;2.25;32.74;102059.97;4438160;32;20127;-73
2022/03/11 09:21:22;;;;;;;12.82;4.45;;;;;;;2.33;32.30;102059.53;4438577;32;20444;-74
2022/03/11 09:23:50;;;;;;;11.05;4.03;;;;;;;2.67;33.79;102055.91;4427340;32;20092;-75
2022/03/11 09:26:17;;;;;;;8.63;4.68;;;;;;;2.80;32.02;102050.47;4435512;32;20489;-75
2022/03/11 09:28:45;;;;;;;7.05;4.35;;;;;;;2.74;31.76;102049.28;4438556;32;20467;-74
2022/03/11 09:31:13;;;;;;;19.95;4.90;;;;;;;2.82;32.02;102046.22;4439143;32;20429;-74
2022/03/11 09:33:41;;;;;;;8.10;3.92;;;;;;;3.02;32.07;102043.66;4438032;32;20108;-74
2022/03/11 09:36:09;;;;;;;10.15;4.15;;;;;;;2.77;31.38;102033.81;4437990;32;20456;-74
2022/03/11 09:38:36;;;;;;;9.05;3.67;;;;;;;3.09;31.30;102046.59;4423284;32;20093;-73
2022/03/11 09:41:05;;;;;;;10.02;4.22;;;;;;;3.30;30.84;102043.16;4434477;32;20472;-73
2022/03/11 09:43:33;;;;;;;17.08;4.03;;;;;;;3.37;30.72;102044.34;4420906;32;20242;-74
2022/03/11 09:46:00;;;;;;;10.70;3.92;;;;;;;3.53;30.91;102044.16;4422752;32;20116;-74
2022/03/11 09:48:28;;;;;;;19.30;4.40;;;;;;;3.65;31.06;102047.31;4436756;32;20123;-74
2022/03/11 09:50:58;;;;;;;16.08;3.78;;;;;;;3.94;30.29;102029.41;4422988;32;20180;-74
2022/03/11 09:53:27;;;;;;;10.27;3.80;;;;;;;3.61;30.17;102029.75;4422665;32;20723;-74
2022/03/11 09:55:55;;;;;;;10.18;4.28;;;;;;;3.74;29.69;102025.94;4436988;32;20115;-74
2022/03/11 09:58:22;;;;;;;16.83;4.85;;;;;;;3.76;29.71;102025.19;4437205;32;20132;-74
2022/03/11 10:00:49;;;;;;;8.88;3.53;;;;;;;3.90;29.19;102022.28;4408996;32;20113;-74
2022/03/11 10:03:17;;;;;;;8.10;4.35;;;;;;;3.61;28.76;102024.56;4436028;32;20504;-73
2022/03/11 10:05:52;;;;;;;28.85;5.15;;;;;;;3.98;29.57;102024.34;4436185;32;20127;-73
2022/03/11 10:08:31;;;;;;;;;;;;;;;4.01;29.39;102015.78;4434694;32;20089;-73
2022/03/11 10:11:20;;;;;;;7.65;3.53;;;;;;;4.19;29.12;102023.47;4433844;32;20309;-74
2022/03/11 10:14:02;;;;;;;6.75;4.32;;;;;;;4.16;28.33;102016.41;4420970;32;20109;-73
2022/03/11 10:16:31;;;;;;;6.85;3.40;;;;;;;4.42;29.05;102019.19;4422631;32;20096;-74
2022/03/11 10:19:01;;;;;;;6.82;3.37;;;;;;;4.35;29.37;102018.03;4421704;32;20615;-72
2022/03/11 10:21:37;;;;;;;5.60;3.62;;;;;;;4.38;28.98;102014.62;4431351;32;20093;-72
2022/03/11 10:24:06;;;;;;;6.45;3.87;;;;;;;4.51;27.97;102019.50;4426093;32;20489;-72
2022/03/11 10:26:42;;;;;;;5.80;3.47;;;;;;;4.89;28.54;102017.50;4425217;32;20076;-73
2022/03/11 10:29:12;;;;;;;4.20;2.90;;;;;;;4.79;26.92;102013.63;4418926;32;20109;-72
2022/03/11 10:31:45;;;;;;;3.50;2.72;;;;;;;4.85;27.17;102012.97;4428891;32;20097;-73
2022/03/11 10:34:24;;;;;;;3.67;2.50;;;;;;;5.13;26.42;102010.56;4422539;32;20185;-72
2022/03/11 10:36:55;;;;;;;5.20;2.75;;;;;;;5.25;26.99;102008.38;4421445;32;20081;-72
2022/03/11 10:39:31;;;;;;;13.20;3.80;;;;;;;5.40;26.46;102002.78;4408761;32;20102;-72
2022/03/11 10:42:12;;;;;;;5.37;3.20;;;;;;;5.72;25.88;102000.41;4429589;32;20116;-72
2022/03/11 10:44:52;;;;;;;4.55;2.80;;;;;;;6.06;25.53;101994.59;4432123;32;20112;-72
2022/03/11 10:47:20;;;;;;;15.60;3.15;;;;;;;6.18;24.55;101996.69;4432319;32;20081;-72
2022/03/11 10:49:52;;;;;;;3.12;2.62;;;;;;;6.19;24.23;101991.53;4430808;32;20135;-73
2022/03/11 10:52:46;;;;;;;10.27;3.90;;;;;;;6.37;24.36;101987.72;4426228;32;20097;-74
2022/03/11 10:55:33;;;;;;;12.75;3.53;;;;;;;6.51;24.55;101975.06;4423247;32;20158;-72
2022/03/11 10:58:04;;;;;;;6.93;3.40;;;;;;;6.57;24.38;101975.22;4426929;32;20082;-73
2022/03/11 11:00:41;;;;;;;5.95;3.03;;;;;;;7.02;23.96;101969.53;4439959;32;20081;-72
2022/03/11 11:03:10;;;;;;;3.92;2.40;;;;;;;8.14;22.31;101965.44;4439204;32;20125;-72
2022/03/11 11:05:40;;;;;;;4.62;2.83;;;;;;;9.46;21.67;101958.56;4436655;32;20377;-72
2022/03/11 11:08:08;;;;;;;4.12;2.53;;;;;;;10.08;19.82;101962.22;4433702;32;20089;-72
2022/03/11 11:10:37;;;;;;;4.53;2.90;;;;;;;11.40;19.61;101955.13;4438565;32;20089;-70
2022/03/11 11:13:09;;;;;;;4.05;2.80;;;;;;;11.48;18.01;101952.56;4438867;32;20109;-71
2022/03/11 11:15:38;;;;;;;5.70;2.92;;;;;;;11.37;19.06;101951.56;4439772;32;20166;-71
2022/03/11 11:18:12;;;;;;;7.50;3.08;;;;;;;12.26;17.80;101952.31;4439204;32;20108;-70
2022/03/11 11:20:42;;;;;;;16.95;3.10;;;;;;;12.60;16.80;101941.06;4439180;32;20217;-71
2022/03/11 11:23:09;;;;;;;5.80;3.33;;;;;;;12.52;17.25;101942.78;4429231;32;20394;-71
2022/03/11 11:25:40;;;;;;;7.32;3.10;;;;;;;14.37;16.33;101936.84;4425799;32;20528;-72
2022/03/11 11:28:14;;;;;;;8.75;2.78;;;;;;;14.53;16.03;101933.31;4431947;32;20428;-72